createdAt,value
2019-05-22T00:00:36.313Z,19.93
2019-05-22T00:03:15.876Z,19.27
2019-05-22T00:05:49.072Z,19.33
2019-05-22T00:08:23.561Z,18.47
2019-05-22T00:11:03.578Z,18.57
2019-05-22T00:13:37.900Z,20.17
2019-05-22T00:16:16.357Z,18.03
2019-05-22T00:18:58.560Z,16.43
2019-05-22T00:21:32.316Z,17.40
2019-05-22T00:24:04.923Z,16.80
2019-05-22T00:26:38.497Z,17.97
2019-05-22T00:29:11.456Z,16.73
2019-05-22T00:31:46.743Z,16.93
2019-05-22T00:34:17.472Z,18.07
2019-05-22T00:36:53.430Z,16.43
2019-05-22T00:39:39.760Z,16.90
2019-05-22T00:42:13.789Z,17.40
2019-05-22T00:44:46.363Z,18.70
2019-05-22T00:47:18.031Z,17.67
2019-05-22T00:49:55.742Z,17.93
2019-05-22T00:52:32.562Z,18.07
2019-05-22T00:55:14.780Z,18.10
2019-05-22T00:57:51.686Z,17.73
2019-05-22T01:00:36.278Z,17.70
2019-05-22T01:03:08.270Z,17.07
2019-05-22T01:05:43.310Z,17.70
2019-05-22T01:08:16.828Z,18.33
2019-05-22T01:10:51.766Z,17.27
2019-05-22T01:13:23.854Z,16.30
2019-05-22T01:15:57.018Z,16.77
2019-05-22T01:18:39.825Z,16.30
2019-05-22T01:21:15.594Z,18.37
2019-05-22T01:23:52.470Z,16.87
2019-05-22T01:26:29.974Z,18.00
2019-05-22T01:29:04.205Z,17.40
2019-05-22T01:31:36.140Z,17.27
2019-05-22T01:34:17.484Z,18.03
2019-05-22T01:36:57.672Z,17.43
2019-05-22T01:39:33.651Z,19.27
2019-05-22T01:42:09.066Z,19.03
2019-05-22T01:44:41.952Z,18.10
2019-05-22T01:47:17.183Z,18.60
2019-05-22T01:49:55.372Z,18.90
2019-05-22T01:52:31.414Z,18.37
2019-05-22T01:55:03.417Z,19.30
2019-05-22T01:57:36.845Z,20.77
2019-05-22T02:00:13.238Z,19.77
2019-05-22T02:02:54.244Z,18.00
2019-05-22T02:05:32.694Z,18.53
2019-05-22T02:08:09.374Z,17.30
2019-05-22T02:10:48.364Z,19.83
2019-05-22T02:13:25.236Z,18.27
2019-05-22T02:16:02.265Z,19.10
2019-05-22T02:18:36.785Z,20.27
2019-05-22T02:21:12.356Z,19.17
2019-05-22T02:23:47.739Z,18.40
2019-05-22T02:26:21.852Z,18.73
2019-05-22T02:28:56.867Z,18.30
2019-05-22T02:31:31.675Z,18.13
2019-05-22T02:34:17.086Z,18.17
2019-05-22T02:36:52.228Z,17.57
2019-05-22T02:39:28.410Z,17.30
2019-05-22T02:42:04.495Z,17.80
2019-05-22T02:44:39.859Z,17.67
2019-05-22T02:47:20.615Z,17.90
2019-05-22T02:49:56.477Z,16.73
2019-05-22T02:52:31.628Z,16.60
2019-05-22T02:55:02.634Z,16.93
2019-05-22T02:57:38.322Z,17.23
2019-05-22T03:00:17.031Z,20.23
2019-05-22T03:03:07.689Z,17.17
2019-05-22T03:05:45.107Z,18.03
2019-05-22T03:08:18.258Z,18.37
2019-05-22T03:10:53.004Z,18.27
2019-05-22T03:13:27.743Z,18.53
2019-05-22T03:16:02.354Z,17.73
2019-05-22T03:18:35.143Z,18.13
2019-05-22T03:21:06.864Z,18.50
2019-05-22T03:23:46.728Z,17.53
2019-05-22T03:26:20.409Z,17.13
2019-05-22T03:28:55.110Z,18.47
2019-05-22T03:31:26.548Z,18.93
2019-05-22T03:34:02.002Z,18.70
2019-05-22T03:36:32.822Z,18.50
2019-05-22T03:39:05.954Z,18.17
2019-05-22T03:41:37.277Z,16.87
2019-05-22T03:44:10.886Z,19.60
2019-05-22T03:46:46.476Z,18.07
2019-05-22T03:49:31.023Z,17.77
2019-05-22T03:51:57.674Z,19.33
2019-05-22T03:54:32.849Z,17.73
2019-05-22T03:57:03.268Z,18.03
2019-05-22T03:59:36.859Z,16.73
2019-05-22T04:02:13.900Z,16.70
2019-05-22T04:04:54.062Z,15.17
2019-05-22T04:07:33.025Z,16.27
2019-05-22T04:10:04.785Z,15.60
2019-05-22T04:12:38.408Z,15.50
2019-05-22T04:15:16.922Z,15.87
2019-05-22T04:18:00.961Z,15.87
2019-05-22T04:20:31.333Z,15.30
2019-05-22T04:23:06.926Z,15.37
2019-05-22T04:25:42.599Z,15.50
2019-05-22T04:28:14.882Z,14.73
2019-05-22T04:30:48.416Z,15.90
2019-05-22T04:33:29.213Z,15.43
2019-05-22T04:36:01.670Z,14.40
2019-05-22T04:38:36.535Z,13.80
2019-05-22T04:41:07.147Z,13.87
2019-05-22T04:43:39.526Z,14.77
2019-05-22T04:46:12.855Z,15.00
2019-05-22T04:48:46.693Z,13.03
2019-05-22T04:51:25.134Z,14.53
2019-05-22T04:54:02.822Z,13.40
2019-05-22T04:56:34.865Z,14.03
2019-05-22T04:59:07.997Z,14.20
2019-05-22T05:01:48.394Z,14.10
2019-05-22T05:04:29.573Z,14.23
2019-05-22T05:07:03.035Z,12.77
2019-05-22T05:09:42.362Z,13.23
2019-05-22T05:12:15.129Z,14.37
2019-05-22T05:14:48.658Z,13.23
2019-05-22T05:17:18.681Z,13.13
2019-05-22T05:19:49.731Z,13.20
2019-05-22T05:22:22.713Z,13.67
2019-05-22T05:24:55.184Z,13.30
2019-05-22T05:27:22.562Z,13.60
2019-05-22T05:29:56.146Z,13.33
2019-05-22T05:32:33.169Z,12.70
2019-05-22T05:35:06.480Z,11.97
2019-05-22T05:37:41.027Z,13.60
2019-05-22T05:40:14.430Z,13.73
2019-05-22T05:42:47.791Z,12.77
2019-05-22T05:45:19.077Z,12.33
2019-05-22T05:47:48.432Z,12.20
2019-05-22T05:50:37.853Z,11.83
2019-05-22T05:52:55.950Z,13.67
2019-05-22T05:55:30.277Z,12.73
2019-05-22T05:58:16.409Z,12.27
2019-05-22T06:00:57.061Z,12.67
2019-05-22T06:03:41.009Z,11.93
2019-05-22T06:06:23.476Z,11.80
2019-05-22T06:08:54.350Z,11.87
2019-05-22T06:11:41.215Z,13.10
2019-05-22T06:14:22.887Z,12.80
2019-05-22T06:16:59.793Z,12.47
2019-05-22T06:19:34.701Z,12.80
2019-05-22T06:22:10.491Z,12.90
2019-05-22T06:24:55.207Z,13.43
2019-05-22T06:27:27.510Z,13.53
2019-05-22T06:30:10.643Z,12.80
2019-05-22T06:33:16.279Z,13.07
2019-05-22T06:35:47.302Z,12.77
2019-05-22T06:38:28.485Z,12.37
2019-05-22T06:41:01.876Z,12.13
2019-05-22T06:43:34.002Z,13.17
2019-05-22T06:46:08.237Z,13.40
2019-05-22T06:48:42.665Z,13.97
2019-05-22T06:51:19.449Z,13.10
2019-05-22T06:53:48.891Z,12.47
2019-05-22T06:56:18.993Z,12.90
2019-05-22T06:58:58.159Z,13.60
2019-05-22T07:01:32.070Z,12.60
2019-05-22T07:04:07.484Z,14.00
2019-05-22T07:06:44.861Z,12.57
2019-05-22T07:09:18.746Z,12.97
2019-05-22T07:11:55.594Z,13.50
2019-05-22T07:14:37.859Z,14.13
2019-05-22T07:17:12.107Z,13.97
2019-05-22T07:19:48.027Z,13.63
2019-05-22T07:22:18.730Z,13.87
2019-05-22T07:24:51.366Z,14.40
2019-05-22T07:27:26.437Z,14.37
2019-05-22T07:30:00.284Z,15.70
2019-05-22T07:32:31.197Z,15.67
2019-05-22T07:35:02.548Z,15.07
2019-05-22T07:37:35.387Z,13.63
2019-05-22T07:40:07.418Z,14.90
2019-05-22T07:42:40.205Z,15.17
2019-05-22T07:45:13.312Z,15.50
2019-05-22T07:47:55.327Z,14.90
2019-05-22T07:50:28.099Z,14.40
2019-05-22T07:53:01.938Z,15.73
2019-05-22T07:55:36.717Z,15.57
2019-05-22T07:58:19.692Z,14.77
2019-05-22T08:00:59.939Z,15.80
2019-05-22T08:03:33.645Z,16.67
2019-05-22T08:06:06.439Z,17.97
2019-05-22T08:08:37.222Z,17.03
2019-05-22T08:11:11.051Z,18.50
2019-05-22T08:13:41.916Z,19.33
2019-05-22T08:16:17.168Z,18.73
2019-05-22T08:18:55.312Z,20.10
2019-05-22T08:21:37.286Z,19.63
2019-05-22T08:24:19.742Z,17.73
2019-05-22T08:27:06.718Z,17.30
2019-05-22T08:29:38.670Z,16.77
2019-05-22T08:32:14.779Z,17.43
2019-05-22T08:34:49.391Z,18.43
2019-05-22T08:37:24.249Z,17.50
2019-05-22T08:39:58.440Z,19.53
2019-05-22T08:42:39.371Z,18.37
2019-05-22T08:45:09.946Z,18.03
2019-05-22T08:47:42.167Z,18.43
2019-05-22T08:50:17.273Z,22.45
2019-05-22T08:52:52.965Z,19.37
2019-05-22T08:55:24.096Z,19.73
2019-05-22T08:57:55.620Z,17.20
2019-05-22T09:00:37.095Z,20.23
2019-05-22T09:03:02.531Z,18.90
2019-05-22T09:05:34.263Z,17.97
2019-05-22T09:08:03.586Z,18.00
2019-05-22T09:10:34.958Z,18.07
2019-05-22T09:13:14.570Z,19.07
2019-05-22T09:15:54.652Z,18.27
2019-05-22T09:18:25.996Z,18.67
2019-05-22T09:20:57.390Z,16.03
2019-05-22T09:23:30.455Z,17.70
2019-05-22T09:26:01.691Z,16.67
2019-05-22T09:28:32.293Z,17.83
2019-05-22T09:31:04.209Z,17.50
2019-05-22T09:33:37.497Z,17.63
2019-05-22T09:36:12.145Z,18.53
2019-05-22T09:38:41.670Z,18.90
2019-05-22T09:41:12.008Z,19.77
2019-05-22T09:43:45.069Z,18.43
2019-05-22T09:46:17.684Z,17.37
2019-05-22T09:48:49.196Z,15.80
2019-05-22T09:51:22.856Z,17.33
2019-05-22T09:53:55.151Z,19.17
2019-05-22T09:56:24.552Z,15.93
2019-05-22T09:58:59.543Z,16.47
2019-05-22T10:01:39.895Z,16.57
2019-05-22T10:04:15.141Z,16.13
2019-05-22T10:06:44.865Z,17.10
2019-05-22T10:09:30.586Z,16.13
2019-05-22T10:12:01.077Z,15.20
2019-05-22T10:14:39.612Z,15.80
2019-05-22T10:17:10.927Z,15.50
2019-05-22T10:19:40.690Z,14.13
2019-05-22T10:22:12.417Z,12.80
2019-05-22T10:24:41.808Z,13.23
2019-05-22T10:27:17.330Z,12.50
2019-05-22T10:29:48.284Z,13.73
2019-05-22T10:32:23.450Z,14.27
2019-05-22T10:34:57.197Z,13.23
2019-05-22T10:37:31.457Z,12.77
2019-05-22T10:40:13.051Z,12.70
2019-05-22T10:42:45.151Z,13.67
2019-05-22T10:45:22.294Z,12.10
2019-05-22T10:50:44.012Z,12.40
2019-05-22T10:53:32.194Z,12.37
2019-05-22T10:55:50.466Z,12.73
2019-05-22T10:58:23.295Z,12.40
2019-05-22T11:00:56.386Z,12.87
2019-05-22T11:03:27.508Z,11.50
2019-05-22T11:06:07.607Z,11.93
2019-05-22T11:08:37.949Z,11.07
2019-05-22T11:11:08.595Z,11.00
2019-05-22T11:14:00.732Z,11.67
2019-05-22T11:16:17.457Z,12.27
2019-05-22T11:18:48.227Z,13.20
2019-05-22T11:21:21.589Z,11.07
2019-05-22T11:23:53.547Z,10.67
2019-05-22T11:26:26.676Z,10.77
2019-05-22T11:29:04.656Z,12.23
2019-05-22T11:31:46.459Z,12.57
2019-05-22T11:34:22.095Z,12.00
2019-05-22T11:37:00.718Z,10.60
2019-05-22T11:39:39.257Z,11.77
2019-05-22T11:42:06.997Z,11.57
2019-05-22T11:44:41.015Z,11.50
2019-05-22T11:47:12.312Z,11.43
2019-05-22T11:49:48.976Z,11.57
2019-05-22T11:52:20.581Z,12.80
2019-05-22T11:54:55.553Z,12.60
2019-05-22T11:57:24.799Z,11.43
2019-05-22T11:59:59.719Z,13.27
2019-05-22T12:02:29.793Z,11.83
2019-05-22T12:05:00.587Z,10.90
2019-05-22T12:07:37.231Z,11.43
2019-05-22T12:10:15.579Z,12.07
2019-05-22T12:12:53.354Z,12.03
2019-05-22T12:15:30.070Z,10.20
2019-05-22T12:17:59.991Z,11.40
2019-05-22T12:20:41.272Z,9.73
2019-05-22T12:23:18.441Z,11.63
2019-05-22T12:25:56.341Z,11.87
2019-05-22T12:28:27.778Z,11.43
2019-05-22T12:31:01.574Z,11.20
2019-05-22T12:33:38.956Z,10.43
2019-05-22T12:36:12.773Z,10.00
2019-05-22T12:38:52.224Z,11.57
2019-05-22T12:41:24.032Z,11.20
2019-05-22T12:43:56.326Z,10.73
2019-05-22T12:46:27.693Z,11.03
2019-05-22T12:49:00.746Z,11.47
2019-05-22T12:51:32.383Z,11.07
2019-05-22T12:54:03.122Z,9.60
2019-05-22T12:56:34.125Z,9.47
2019-05-22T12:59:10.540Z,9.80
2019-05-22T13:04:46.419Z,10.37
2019-05-22T13:07:19.928Z,12.07
2019-05-22T13:09:52.850Z,11.33
2019-05-22T13:12:26.494Z,12.63
2019-05-22T13:15:09.487Z,10.07
2019-05-22T13:17:34.298Z,10.40
2019-05-22T13:20:11.752Z,11.40
2019-05-22T13:22:55.382Z,11.13
2019-05-22T13:25:28.878Z,10.97
2019-05-22T13:28:05.189Z,9.83
2019-05-22T13:30:43.006Z,10.90
2019-05-22T13:33:22.591Z,10.07
2019-05-22T13:35:56.642Z,10.07
2019-05-22T13:38:41.647Z,10.17
2019-05-22T13:41:31.766Z,8.37
2019-05-22T13:44:06.702Z,7.87
2019-05-22T13:46:41.997Z,9.10
2019-05-22T13:49:14.243Z,9.37
2019-05-22T13:51:52.279Z,9.23
2019-05-22T13:54:31.248Z,8.63
2019-05-22T13:57:11.717Z,8.30
2019-05-22T13:59:42.323Z,8.20
2019-05-22T14:02:17.716Z,8.23
2019-05-22T14:04:55.625Z,8.83
2019-05-22T14:07:34.080Z,9.33
2019-05-22T14:10:01.351Z,8.40
2019-05-22T14:12:30.632Z,7.93
2019-05-22T14:15:00.093Z,7.67
2019-05-22T14:17:31.305Z,8.67
2019-05-22T14:20:05.358Z,8.03
2019-05-22T14:22:50.385Z,7.90
2019-05-22T14:25:19.478Z,7.70
2019-05-22T14:27:52.438Z,7.50
2019-05-22T14:30:29.148Z,7.53
2019-05-22T14:33:05.413Z,8.20
2019-05-22T14:35:48.658Z,7.80
2019-05-22T14:38:22.908Z,7.77
2019-05-22T14:40:55.007Z,8.77
2019-05-22T14:43:47.966Z,7.60
2019-05-22T14:46:12.577Z,7.43
2019-05-22T14:48:45.931Z,7.73
2019-05-22T14:51:31.786Z,8.13
2019-05-22T14:54:07.066Z,8.30
2019-05-22T14:56:40.795Z,8.10
2019-05-22T14:59:11.998Z,7.87
2019-05-22T15:01:43.960Z,8.07
2019-05-22T15:04:19.670Z,7.33
2019-05-22T15:06:51.250Z,7.70
2019-05-22T15:09:35.367Z,7.83
2019-05-22T15:12:09.745Z,8.63
2019-05-22T15:14:42.269Z,7.97
2019-05-22T15:17:31.776Z,7.10
2019-05-22T15:19:50.804Z,8.17
2019-05-22T15:22:22.294Z,7.63
2019-05-22T15:24:52.889Z,8.03
2019-05-22T15:27:27.338Z,7.77
2019-05-22T15:30:02.306Z,7.90
2019-05-22T15:32:33.084Z,7.47
2019-05-22T15:35:07.101Z,7.47
2019-05-22T15:37:40.879Z,7.90
2019-05-22T15:40:12.317Z,8.87
2019-05-22T15:42:57.120Z,8.37
2019-05-22T15:45:34.238Z,8.93
2019-05-22T15:48:07.466Z,8.17
2019-05-22T15:50:41.762Z,8.27
2019-05-22T15:53:16.682Z,8.57
2019-05-22T15:55:51.935Z,8.60
2019-05-22T15:58:28.862Z,8.40
2019-05-22T16:01:00.646Z,7.70
2019-05-22T16:03:36.165Z,8.63
2019-05-22T16:06:09.769Z,7.67
2019-05-22T16:08:40.522Z,8.70
2019-05-22T16:11:16.197Z,8.07
2019-05-22T16:13:47.882Z,8.63
2019-05-22T16:16:22.535Z,8.60
2019-05-22T16:19:40.814Z,8.17
2019-05-22T16:21:53.256Z,8.37
2019-05-22T16:24:24.769Z,9.07
2019-05-22T16:27:00.566Z,9.10
2019-05-22T16:30:02.214Z,9.30
2019-05-22T16:32:06.175Z,8.07
2019-05-22T16:34:53.403Z,8.10
2019-05-22T16:37:31.497Z,8.53
2019-05-22T16:40:05.152Z,7.93
2019-05-22T16:42:39.505Z,8.57
2019-05-22T16:45:15.679Z,9.13
2019-05-22T16:47:49.009Z,9.60
2019-05-22T16:50:37.139Z,8.40
2019-05-22T16:53:07.673Z,8.83
2019-05-22T16:55:39.752Z,8.47
2019-05-22T16:58:11.936Z,9.47
2019-05-22T17:00:41.862Z,8.43
2019-05-22T17:03:12.756Z,8.70
2019-05-22T17:05:45.431Z,8.80
2019-05-22T17:08:22.828Z,7.83
2019-05-22T17:10:53.999Z,8.67
2019-05-22T17:13:28.276Z,8.60
2019-05-22T17:16:09.486Z,8.40
2019-05-22T17:18:47.807Z,7.80
2019-05-22T17:21:17.862Z,7.80
2019-05-22T17:23:51.637Z,7.80
2019-05-22T17:26:23.267Z,8.20
2019-05-22T17:28:53.822Z,8.67
2019-05-22T17:31:27.234Z,8.73
2019-05-22T17:34:05.280Z,7.57
2019-05-22T17:36:34.582Z,8.07
2019-05-22T17:39:05.616Z,7.50
2019-05-22T17:41:37.647Z,8.57
2019-05-22T17:44:08.974Z,9.07
2019-05-22T17:46:42.874Z,8.53
2019-05-22T17:49:15.117Z,8.97
2019-05-22T17:51:49.724Z,8.03
2019-05-22T17:54:27.312Z,8.37
2019-05-22T17:57:07.798Z,8.40
2019-05-22T17:59:38.620Z,8.57
2019-05-22T18:02:19.468Z,7.90
2019-05-22T18:04:56.868Z,8.50
2019-05-22T18:07:24.719Z,8.27
2019-05-22T18:09:55.184Z,7.63
2019-05-22T18:12:28.432Z,7.70
2019-05-22T18:14:59.565Z,6.13
2019-05-22T18:20:24.839Z,6.60
2019-05-22T18:23:00.193Z,6.40
2019-05-22T18:25:38.128Z,7.47
2019-05-22T18:28:18.289Z,6.90
2019-05-22T18:30:57.303Z,7.77
2019-05-22T18:33:29.915Z,7.33
2019-05-22T18:36:04.698Z,6.73
2019-05-22T18:38:38.548Z,8.10
2019-05-22T18:41:12.809Z,7.33
2019-05-22T18:43:48.115Z,6.70
2019-05-22T18:46:24.073Z,6.40
2019-05-22T18:49:24.518Z,6.73
2019-05-22T18:51:38.580Z,5.63
2019-05-22T18:54:18.951Z,7.13
2019-05-22T18:56:49.021Z,7.17
2019-05-22T18:59:21.305Z,7.07
2019-05-22T19:01:59.387Z,7.07
2019-05-22T19:04:35.178Z,7.30
2019-05-22T19:07:16.746Z,7.17
2019-05-22T19:09:54.262Z,6.87
2019-05-22T19:12:27.083Z,6.63
2019-05-22T19:15:01.042Z,6.93
2019-05-22T19:17:59.514Z,6.63
2019-05-22T19:20:20.898Z,6.73
2019-05-22T19:23:00.284Z,6.63
2019-05-22T19:25:27.257Z,7.27
2019-05-22T19:28:00.862Z,6.83
2019-05-22T19:30:42.793Z,6.27
2019-05-22T19:33:18.015Z,6.10
2019-05-22T19:35:57.756Z,6.23
2019-05-22T19:38:31.088Z,6.90
2019-05-22T19:41:02.781Z,6.50
2019-05-22T19:43:37.907Z,8.20
2019-05-22T19:46:26.251Z,7.60
2019-05-22T19:49:01.503Z,6.23
2019-05-22T19:51:38.119Z,6.80
2019-05-22T19:54:26.218Z,6.43
2019-05-22T19:56:55.899Z,7.00
2019-05-22T19:59:25.417Z,7.50
2019-05-22T20:02:00.259Z,6.70
2019-05-22T20:04:35.134Z,7.23
2019-05-22T20:07:08.868Z,6.80
2019-05-22T20:09:51.190Z,6.43
2019-05-22T20:12:24.973Z,6.43
2019-05-22T20:14:55.127Z,7.07
2019-05-22T20:17:27.785Z,6.97
2019-05-22T20:20:06.050Z,7.03
2019-05-22T20:22:47.407Z,6.80
2019-05-22T20:25:28.348Z,7.20
2019-05-22T20:28:12.406Z,7.50
2019-05-22T20:30:42.231Z,7.03
2019-05-22T20:33:19.638Z,7.70
2019-05-22T20:35:53.771Z,7.63
2019-05-22T20:38:27.303Z,7.17
2019-05-22T20:40:59.824Z,7.00
2019-05-22T20:43:33.870Z,7.43
2019-05-22T20:46:04.343Z,6.97
2019-05-22T20:48:42.458Z,7.40
2019-05-22T20:51:14.646Z,7.60
2019-05-22T20:53:56.215Z,7.53
2019-05-22T20:56:28.265Z,7.17
2019-05-22T20:59:07.041Z,7.30
2019-05-22T21:01:36.526Z,7.47
2019-05-22T21:04:08.985Z,8.00
2019-05-22T21:06:50.286Z,7.40
2019-05-22T21:12:18.188Z,6.90
2019-05-22T21:14:56.721Z,7.97
2019-05-22T21:17:34.652Z,6.37
2019-05-22T21:20:13.115Z,6.97
2019-05-22T21:23:04.109Z,7.23
2019-05-22T21:25:50.182Z,7.37
2019-05-22T21:28:20.545Z,7.93
2019-05-22T21:30:56.168Z,6.97
2019-05-22T21:33:28.877Z,7.40
2019-05-22T21:36:00.034Z,6.80
2019-05-22T21:38:38.352Z,7.50
2019-05-22T21:41:13.704Z,7.97
2019-05-22T21:43:48.043Z,8.10
2019-05-22T21:46:21.520Z,7.20
2019-05-22T21:48:56.780Z,8.30
2019-05-22T21:51:29.990Z,7.40
2019-05-22T21:54:02.362Z,6.83
2019-05-22T21:56:36.634Z,7.43
2019-05-22T21:59:16.440Z,7.13
2019-05-22T22:01:59.256Z,9.47
2019-05-22T22:04:36.407Z,6.77
2019-05-22T22:07:11.026Z,7.20
2019-05-22T22:09:49.081Z,8.00
2019-05-22T22:12:25.712Z,6.90
2019-05-22T22:15:02.041Z,8.13
2019-05-22T22:17:35.844Z,6.67
2019-05-22T22:20:09.963Z,7.90
2019-05-22T22:22:43.411Z,7.03
2019-05-22T22:25:19.836Z,7.13
2019-05-22T22:27:50.365Z,7.50
2019-05-22T22:30:27.407Z,7.50
2019-05-22T22:33:03.902Z,7.23
2019-05-22T22:35:38.505Z,7.07
2019-05-22T22:38:19.058Z,6.77
2019-05-22T22:41:03.753Z,7.83
2019-05-22T22:43:31.967Z,7.13
2019-05-22T22:46:05.392Z,7.27
2019-05-22T22:48:41.092Z,6.87
2019-05-22T22:51:16.800Z,7.03
2019-05-22T22:53:50.912Z,7.43
2019-05-22T22:56:22.811Z,6.97
2019-05-22T22:58:56.384Z,6.40
2019-05-22T23:01:34.064Z,6.47
2019-05-22T23:04:09.233Z,7.43
2019-05-22T23:06:44.919Z,7.13
2019-05-22T23:09:23.343Z,6.67
2019-05-22T23:12:00.284Z,6.47
2019-05-22T23:14:33.039Z,6.40
2019-05-22T23:17:07.233Z,6.93
2019-05-22T23:19:37.831Z,6.43
2019-05-22T23:22:08.425Z,7.40
2019-05-22T23:24:46.915Z,6.90
2019-05-22T23:27:20.572Z,7.27
2019-05-22T23:29:58.623Z,6.87
2019-05-22T23:32:33.462Z,6.80
2019-05-22T23:35:03.658Z,6.63
2019-05-22T23:37:36.088Z,6.80
2019-05-22T23:40:08.438Z,6.37
2019-05-22T23:42:47.061Z,6.13
2019-05-22T23:45:21.480Z,6.83
2019-05-22T23:48:23.829Z,6.90
2019-05-22T23:51:02.857Z,6.77
2019-05-22T23:53:35.834Z,6.77
2019-05-22T23:56:10.050Z,6.20
2019-05-22T23:58:52.073Z,7.03
